createdAt,value
2023-06-22T00:01:23.518Z,82.63
2023-06-22T00:03:50.444Z,83.48
2023-06-22T00:06:17.216Z,84.18
2023-06-22T00:08:43.906Z,84.53
2023-06-22T00:11:10.573Z,83.74
2023-06-22T00:13:37.342Z,82.76
2023-06-22T00:16:04.331Z,84.33
2023-06-22T00:18:31.876Z,85.50
2023-06-22T00:20:59.572Z,85.02
2023-06-22T00:23:27.186Z,83.41
2023-06-22T00:25:54.015Z,82.56
2023-06-22T00:28:21.146Z,80.48
2023-06-22T00:30:48.683Z,80.15
2023-06-22T00:33:17.353Z,79.73
2023-06-22T00:35:44.154Z,79.71
2023-06-22T00:38:10.934Z,78.95
2023-06-22T00:40:39.128Z,78.78
2023-06-22T00:43:06.434Z,80.32
2023-06-22T00:45:33.179Z,80.51
2023-06-22T00:48:00.678Z,81.66
2023-06-22T00:50:34.789Z,81.01
2023-06-22T00:53:10.600Z,80.78
2023-06-22T00:55:52.582Z,79.70
2023-06-22T00:58:22.902Z,80.06
2023-06-22T01:00:50.098Z,81.48
2023-06-22T01:03:18.327Z,82.65
2023-06-22T01:05:47.840Z,82.49
2023-06-22T01:08:23.213Z,83.88
2023-06-22T01:10:59.803Z,84.25
2023-06-22T01:13:38.634Z,85.74
2023-06-22T01:16:08.833Z,87.18
2023-06-22T01:18:38.737Z,87.02
2023-06-22T01:21:10.922Z,87.87
2023-06-22T01:23:55.032Z,88.74
2023-06-22T01:26:44.879Z,89.81
2023-06-22T01:29:14.893Z,89.37
2023-06-22T01:31:43.860Z,87.85
2023-06-22T01:34:11.975Z,88.37
2023-06-22T01:36:40.100Z,88.98
2023-06-22T01:39:08.406Z,89.31
2023-06-22T01:41:38.192Z,89.92
2023-06-22T01:44:08.422Z,88.96
2023-06-22T01:46:36.444Z,88.94
2023-06-22T01:49:07.271Z,87.78
2023-06-22T01:51:38.163Z,86.13
2023-06-22T01:54:07.596Z,84.81
2023-06-22T01:56:34.187Z,83.78
2023-06-22T01:59:34.005Z,83.79
2023-06-22T02:02:08.962Z,86.02
2023-06-22T02:04:44.480Z,86.66
2023-06-22T02:07:15.316Z,87.31
2023-06-22T02:09:45.458Z,87.29
2023-06-22T02:12:14.840Z,88.94
2023-06-22T02:14:42.007Z,89.06
2023-06-22T02:17:16.649Z,87.39
2023-06-22T02:19:43.210Z,88.13
2023-06-22T02:22:10.304Z,89.54
2023-06-22T02:24:36.863Z,90.56
2023-06-22T02:27:03.805Z,90.93
2023-06-22T02:29:30.779Z,90.98
2023-06-22T02:31:57.404Z,91.27
2023-06-22T02:34:24.081Z,91.08
2023-06-22T02:36:53.770Z,90.94
2023-06-22T02:39:25.534Z,90.43
2023-06-22T02:41:55.800Z,91.13
2023-06-22T02:44:22.744Z,89.24
2023-06-22T02:46:49.531Z,88.15
2023-06-22T02:49:16.409Z,87.50
2023-06-22T02:51:48.475Z,89.03
2023-06-22T02:54:15.112Z,89.68
2023-06-22T02:56:44.878Z,89.04
2023-06-22T02:59:12.077Z,89.44
2023-06-22T03:01:41.783Z,90.39
2023-06-22T03:04:09.374Z,90.59
2023-06-22T03:06:37.272Z,91.12
2023-06-22T03:09:05.809Z,90.91
2023-06-22T03:11:33.103Z,91.37
2023-06-22T03:14:00.325Z,89.82
2023-06-22T03:16:27.065Z,90.12
2023-06-22T03:18:57.084Z,90.67
2023-06-22T03:21:24.647Z,92.11
2023-06-22T03:23:51.389Z,92.14
2023-06-22T03:26:19.167Z,92.33
2023-06-22T03:28:45.760Z,92.91
2023-06-22T03:31:12.374Z,92.66
2023-06-22T03:33:39.061Z,92.88
2023-06-22T03:36:05.707Z,93.13
2023-06-22T03:38:32.477Z,90.40
2023-06-22T03:40:59.058Z,88.01
2023-06-22T03:43:25.712Z,88.50
2023-06-22T03:45:52.319Z,88.81
2023-06-22T03:48:19.012Z,89.56
2023-06-22T03:50:45.735Z,89.72
2023-06-22T03:53:12.329Z,90.09
2023-06-22T03:55:38.997Z,90.23
2023-06-22T03:58:06.980Z,90.83
2023-06-22T04:00:33.771Z,90.55
2023-06-22T04:03:00.467Z,90.71
2023-06-22T04:05:27.196Z,88.75
2023-06-22T04:07:53.798Z,88.82
2023-06-22T04:10:20.369Z,89.16
2023-06-22T04:12:46.937Z,88.13
2023-06-22T04:15:13.508Z,85.80
2023-06-22T04:17:40.158Z,87.62
2023-06-22T04:20:07.830Z,88.13
2023-06-22T04:22:34.418Z,88.12
2023-06-22T04:25:01.073Z,87.96
2023-06-22T04:27:27.647Z,88.99
2023-06-22T04:29:54.223Z,88.11
2023-06-22T04:32:20.904Z,88.32
2023-06-22T04:34:47.509Z,88.56
2023-06-22T04:37:16.541Z,87.66
2023-06-22T04:39:44.433Z,86.74
2023-06-22T04:42:11.109Z,85.62
2023-06-22T04:44:37.741Z,85.82
2023-06-22T04:47:05.132Z,85.85
2023-06-22T04:49:37.074Z,84.62
2023-06-22T04:52:08.726Z,83.46
2023-06-22T04:54:37.448Z,83.22
2023-06-22T04:57:06.327Z,81.28
2023-06-22T04:59:33.027Z,80.39
2023-06-22T05:02:03.344Z,79.08
2023-06-22T05:04:34.180Z,80.45
2023-06-22T05:07:01.575Z,81.29
2023-06-22T05:09:28.406Z,81.42
2023-06-22T05:11:55.362Z,80.62
2023-06-22T05:14:22.065Z,79.61
2023-06-22T05:16:50.215Z,78.08
2023-06-22T05:19:16.802Z,76.86
2023-06-22T05:21:43.380Z,76.02
2023-06-22T05:24:09.960Z,75.65
2023-06-22T05:26:37.062Z,76.67
2023-06-22T05:29:04.156Z,77.96
2023-06-22T05:31:31.142Z,78.23
2023-06-22T05:33:57.968Z,76.82
2023-06-22T05:36:27.448Z,76.18
2023-06-22T05:38:54.349Z,76.79
2023-06-22T05:41:21.063Z,76.38
2023-06-22T05:43:47.930Z,76.62
2023-06-22T05:46:14.897Z,77.21
2023-06-22T05:48:41.656Z,77.39
2023-06-22T05:51:08.266Z,75.16
2023-06-22T05:53:34.945Z,74.81
2023-06-22T05:56:01.566Z,74.33
2023-06-22T05:58:28.159Z,73.38
2023-06-22T06:00:54.913Z,73.85
2023-06-22T06:03:21.483Z,74.32
2023-06-22T06:05:48.763Z,74.03
2023-06-22T06:08:15.432Z,72.59
2023-06-22T06:10:42.279Z,72.15
2023-06-22T06:13:09.192Z,72.46
2023-06-22T06:15:35.942Z,72.31
2023-06-22T06:18:05.491Z,70.86
2023-06-22T06:20:32.815Z,69.06
2023-06-22T06:22:59.871Z,67.54
2023-06-22T06:25:27.149Z,65.31
2023-06-22T06:27:55.777Z,66.24
2023-06-22T06:30:23.368Z,67.22
2023-06-22T06:32:50.645Z,65.48
2023-06-22T06:35:17.970Z,65.85
2023-06-22T06:37:46.571Z,64.69
2023-06-22T06:40:14.784Z,64.44
2023-06-22T06:42:45.516Z,63.53
2023-06-22T06:45:20.540Z,61.99
2023-06-22T06:47:47.959Z,62.89
2023-06-22T06:50:14.713Z,62.23
2023-06-22T06:52:41.587Z,63.57
2023-06-22T06:55:09.317Z,65.68
2023-06-22T06:57:36.340Z,64.13
2023-06-22T07:00:03.707Z,64.61
2023-06-22T07:02:30.455Z,65.66
2023-06-22T07:04:57.092Z,65.96
2023-06-22T07:07:24.081Z,64.72
2023-06-22T07:09:50.730Z,65.14
2023-06-22T07:12:17.358Z,65.00
2023-06-22T07:14:43.945Z,63.94
2023-06-22T07:17:10.519Z,63.71
2023-06-22T07:19:37.160Z,63.06
2023-06-22T07:22:04.066Z,61.94
2023-06-22T07:24:30.824Z,61.57
2023-06-22T07:27:00.198Z,60.49
2023-06-22T07:29:27.934Z,58.97
2023-06-22T07:31:54.586Z,57.46
2023-06-22T07:34:21.348Z,57.71
2023-06-22T07:36:48.396Z,56.03
2023-06-22T07:39:15.806Z,55.20
2023-06-22T07:41:44.664Z,56.60
2023-06-22T07:44:11.318Z,56.00
2023-06-22T07:46:37.981Z,56.02
2023-06-22T07:49:04.674Z,57.10
2023-06-22T07:51:31.260Z,56.99
2023-06-22T07:53:57.932Z,56.71
2023-06-22T07:56:24.596Z,55.70
2023-06-22T07:58:51.340Z,55.06
2023-06-22T08:01:18.561Z,55.14
2023-06-22T08:03:45.309Z,56.17
2023-06-22T08:06:12.062Z,56.22
2023-06-22T08:08:40.127Z,55.93
2023-06-22T08:11:18.650Z,55.50
2023-06-22T08:13:45.636Z,54.81
2023-06-22T08:16:14.232Z,54.76
2023-06-22T08:18:40.881Z,54.84
2023-06-22T08:21:07.575Z,53.47
2023-06-22T08:23:37.254Z,53.27
2023-06-22T08:26:03.915Z,53.33
2023-06-22T08:28:30.571Z,53.32
2023-06-22T08:30:57.421Z,54.17
2023-06-22T08:33:29.566Z,54.07
2023-06-22T08:35:56.735Z,53.91
2023-06-22T08:38:23.364Z,53.49
2023-06-22T08:40:50.134Z,53.52
2023-06-22T08:43:17.066Z,52.91
2023-06-22T08:45:43.774Z,52.81
2023-06-22T08:48:11.982Z,52.49
2023-06-22T08:50:38.615Z,52.48
2023-06-22T08:53:05.257Z,52.84
2023-06-22T08:55:32.129Z,51.95
2023-06-22T08:57:59.162Z,52.14
2023-06-22T09:00:25.991Z,51.50
2023-06-22T09:02:52.791Z,50.92
2023-06-22T09:05:21.680Z,51.30
2023-06-22T09:07:51.654Z,50.65
2023-06-22T09:10:21.772Z,50.17
2023-06-22T09:12:51.629Z,49.43
2023-06-22T09:15:19.001Z,48.86
2023-06-22T09:17:47.989Z,49.92
2023-06-22T09:20:15.890Z,50.00
2023-06-22T09:22:42.818Z,49.58
2023-06-22T09:25:09.862Z,50.15
2023-06-22T09:27:36.506Z,49.45
2023-06-22T09:30:04.719Z,49.08
2023-06-22T09:32:31.400Z,48.98
2023-06-22T09:34:58.235Z,48.33
2023-06-22T09:37:24.859Z,49.16
2023-06-22T09:39:51.521Z,49.55
2023-06-22T09:42:18.139Z,49.35
2023-06-22T09:44:44.731Z,48.78
2023-06-22T09:47:11.378Z,48.73
2023-06-22T09:49:48.106Z,46.84
2023-06-22T09:52:15.662Z,46.75
2023-06-22T09:54:42.304Z,45.45
2023-06-22T09:57:08.917Z,44.45
2023-06-22T09:59:35.595Z,44.79
2023-06-22T10:02:02.309Z,44.34
2023-06-22T10:04:29.339Z,44.52
2023-06-22T10:06:56.081Z,45.44
2023-06-22T10:09:22.720Z,44.46
2023-06-22T10:11:49.469Z,44.60
2023-06-22T10:14:16.278Z,44.69
2023-06-22T10:16:42.969Z,43.73
2023-06-22T10:19:09.723Z,44.01
2023-06-22T10:21:36.355Z,43.82
2023-06-22T10:24:07.671Z,42.88
2023-06-22T10:26:35.272Z,43.41
2023-06-22T10:29:15.926Z,43.49
2023-06-22T10:31:44.094Z,43.61
2023-06-22T10:34:10.835Z,41.62
2023-06-22T10:36:37.533Z,41.34
2023-06-22T10:39:04.533Z,42.39
2023-06-22T10:41:32.038Z,40.71
2023-06-22T10:43:59.229Z,42.73
2023-06-22T10:46:29.231Z,42.48
2023-06-22T10:48:58.169Z,41.52
2023-06-22T10:51:24.895Z,43.59
2023-06-22T10:53:52.179Z,42.97
2023-06-22T10:56:19.756Z,44.08
2023-06-22T10:58:46.947Z,44.57
2023-06-22T11:01:30.031Z,44.37
2023-06-22T11:04:00.820Z,45.00
2023-06-22T11:06:27.607Z,45.87
2023-06-22T11:09:04.419Z,44.25
2023-06-22T11:11:33.996Z,43.00
2023-06-22T11:14:00.858Z,41.38
2023-06-22T11:16:28.372Z,41.11
2023-06-22T11:18:55.133Z,39.18
2023-06-22T11:21:21.792Z,40.36
2023-06-22T11:23:48.462Z,42.47
2023-06-22T11:26:15.242Z,41.73
2023-06-22T11:28:41.992Z,40.06
2023-06-22T11:31:24.368Z,39.88
2023-06-22T11:33:52.636Z,38.76
2023-06-22T11:36:20.016Z,36.99
2023-06-22T11:38:46.770Z,39.15
2023-06-22T11:41:13.449Z,39.20
2023-06-22T11:43:40.103Z,39.16
2023-06-22T11:46:07.331Z,38.64
2023-06-22T11:48:36.557Z,40.44
2023-06-22T11:51:04.163Z,39.46
2023-06-22T11:53:31.249Z,40.16
2023-06-22T11:55:57.981Z,37.28
2023-06-22T11:58:24.649Z,37.58
2023-06-22T12:00:52.617Z,36.49
2023-06-22T12:03:20.640Z,36.27
2023-06-22T12:05:47.672Z,36.75
2023-06-22T12:08:15.099Z,37.25
2023-06-22T12:10:42.063Z,36.88
2023-06-22T12:13:13.350Z,35.16
2023-06-22T12:15:40.094Z,37.04
2023-06-22T12:18:06.816Z,36.10
2023-06-22T12:20:33.710Z,36.69
2023-06-22T12:23:00.409Z,37.94
2023-06-22T12:25:27.076Z,34.74
2023-06-22T12:27:53.784Z,34.87
2023-06-22T12:30:20.516Z,31.91
2023-06-22T12:32:47.320Z,29.59
2023-06-22T12:35:15.367Z,29.97
2023-06-22T12:37:45.301Z,31.49
2023-06-22T12:40:12.380Z,28.89
2023-06-22T12:42:39.025Z,27.96
2023-06-22T12:45:06.557Z,33.43
2023-06-22T12:47:33.230Z,31.12
2023-06-22T12:49:59.931Z,29.63
2023-06-22T12:52:26.971Z,29.50
2023-06-22T12:54:55.733Z,29.96
2023-06-22T12:57:23.018Z,33.39
2023-06-22T12:59:49.753Z,32.15
2023-06-22T13:02:16.565Z,28.85
2023-06-22T13:04:44.237Z,29.88
2023-06-22T13:07:21.590Z,29.94
2023-06-22T13:09:53.068Z,30.88
2023-06-22T13:12:23.987Z,30.88
2023-06-22T13:14:50.839Z,29.74
2023-06-22T13:17:17.555Z,29.07
2023-06-22T13:19:44.214Z,28.23
2023-06-22T13:22:44.137Z,28.81
2023-06-22T13:25:14.257Z,28.47
2023-06-22T13:27:41.955Z,28.68
2023-06-22T13:33:09.191Z,25.97
2023-06-22T13:35:38.934Z,27.25
2023-06-22T13:38:05.613Z,26.70
2023-06-22T13:40:32.539Z,24.97
2023-06-22T13:42:59.146Z,25.56
2023-06-22T13:45:25.924Z,24.75
2023-06-22T13:47:52.532Z,26.46
2023-06-22T13:50:19.522Z,25.96
2023-06-22T13:52:46.101Z,25.59
2023-06-22T13:55:15.203Z,23.80
2023-06-22T13:57:42.011Z,27.52
2023-06-22T14:00:09.517Z,24.92
2023-06-22T14:02:36.267Z,28.38
2023-06-22T14:05:03.750Z,25.85
2023-06-22T14:07:30.399Z,28.51
2023-06-22T14:09:57.061Z,30.79
2023-06-22T14:12:23.636Z,30.01
2023-06-22T14:14:50.248Z,30.61
2023-06-22T14:17:17.002Z,29.80
2023-06-22T14:19:43.591Z,26.97
2023-06-22T14:22:10.265Z,25.16
2023-06-22T14:24:36.893Z,23.89
2023-06-22T14:27:04.472Z,22.95
2023-06-22T14:29:31.108Z,25.62
2023-06-22T14:32:00.788Z,26.68
2023-06-22T14:34:27.418Z,30.00
2023-06-22T14:36:53.984Z,28.48
2023-06-22T14:39:22.109Z,27.04
2023-06-22T14:41:51.250Z,26.29
2023-06-22T14:44:18.276Z,24.22
2023-06-22T14:46:44.939Z,23.63
2023-06-22T14:49:11.707Z,24.52
2023-06-22T14:51:38.406Z,22.37
2023-06-22T14:54:05.151Z,24.32
2023-06-22T14:56:32.944Z,25.10
2023-06-22T14:59:00.233Z,23.83
2023-06-22T15:01:26.897Z,27.25
2023-06-22T15:03:53.665Z,25.47
2023-06-22T15:06:20.283Z,24.26
2023-06-22T15:08:47.452Z,29.14
2023-06-22T15:11:14.209Z,29.21
2023-06-22T15:13:42.007Z,28.82
2023-06-22T15:16:09.326Z,28.85
2023-06-22T15:18:36.645Z,31.56
2023-06-22T15:21:05.093Z,31.38
2023-06-22T15:23:32.724Z,31.28
2023-06-22T15:26:00.161Z,30.24
2023-06-22T15:28:26.835Z,30.29
2023-06-22T15:30:53.819Z,31.42
2023-06-22T15:33:20.604Z,29.53
2023-06-22T15:35:47.392Z,33.42
2023-06-22T15:38:14.131Z,34.42
2023-06-22T15:40:40.798Z,34.66
2023-06-22T15:43:07.333Z,31.82
2023-06-22T15:45:33.978Z,26.63
2023-06-22T15:48:00.680Z,29.72
2023-06-22T15:50:27.463Z,29.24
2023-06-22T15:52:54.266Z,29.45
2023-06-22T15:55:20.905Z,28.18
2023-06-22T15:57:48.169Z,29.08
2023-06-22T16:00:18.962Z,32.89
2023-06-22T16:02:47.197Z,30.38
2023-06-22T16:05:14.239Z,30.88
2023-06-22T16:07:40.975Z,32.74
2023-06-22T16:10:08.406Z,32.57
2023-06-22T16:12:36.277Z,31.68
2023-06-22T16:15:04.970Z,32.02
2023-06-22T16:17:31.792Z,34.27
2023-06-22T16:20:00.691Z,36.64
2023-06-22T16:22:33.761Z,37.40
2023-06-22T16:25:00.459Z,39.22
2023-06-22T16:27:29.359Z,40.69
2023-06-22T16:29:56.187Z,39.90
2023-06-22T16:32:22.851Z,41.43
2023-06-22T16:34:49.508Z,41.41
2023-06-22T16:37:16.106Z,41.17
2023-06-22T16:39:42.794Z,40.24
2023-06-22T16:42:19.445Z,39.39
2023-06-22T16:44:46.307Z,38.33
2023-06-22T16:47:13.009Z,38.65
2023-06-22T16:49:39.777Z,38.17
2023-06-22T16:52:07.163Z,39.15
2023-06-22T16:54:34.554Z,38.43
2023-06-22T16:57:02.957Z,36.44
2023-06-22T16:59:29.845Z,36.03
2023-06-22T17:01:58.106Z,36.02
2023-06-22T17:04:25.745Z,36.68
2023-06-22T17:07:00.120Z,37.71
2023-06-22T17:09:57.621Z,37.82
2023-06-22T17:12:26.159Z,36.61
2023-06-22T17:14:53.576Z,37.69
2023-06-22T17:17:22.728Z,37.15
2023-06-22T17:19:49.557Z,36.56
2023-06-22T17:22:16.262Z,36.81
2023-06-22T17:24:45.689Z,39.08
2023-06-22T17:27:12.277Z,38.54
2023-06-22T17:29:38.853Z,38.61
2023-06-22T17:32:09.337Z,38.81
2023-06-22T17:34:36.557Z,39.60
2023-06-22T17:37:03.376Z,40.32
2023-06-22T17:39:30.332Z,41.96
2023-06-22T17:41:57.432Z,42.53
2023-06-22T17:44:25.911Z,45.17
2023-06-22T17:46:56.041Z,45.37
2023-06-22T17:49:27.570Z,47.49
2023-06-22T17:51:54.207Z,48.38
2023-06-22T17:54:27.587Z,48.87
2023-06-22T17:57:01.429Z,49.42
2023-06-22T17:59:30.359Z,48.90
2023-06-22T18:01:57.001Z,50.33
2023-06-22T18:04:24.406Z,50.26
2023-06-22T18:06:51.419Z,50.84
2023-06-22T18:09:18.951Z,51.81
2023-06-22T18:11:56.726Z,51.54
2023-06-22T18:14:23.456Z,52.13
2023-06-22T18:16:52.031Z,53.01
2023-06-22T18:19:19.104Z,53.25
2023-06-22T18:21:49.640Z,53.18
2023-06-22T18:24:17.881Z,53.50
2023-06-22T18:26:45.778Z,53.95
2023-06-22T18:29:13.260Z,54.30
2023-06-22T18:31:40.271Z,57.34
2023-06-22T18:34:14.965Z,54.60
2023-06-22T18:36:48.164Z,54.75
2023-06-22T18:39:16.296Z,54.91
2023-06-22T18:42:05.749Z,55.17
2023-06-22T18:44:42.070Z,54.71
2023-06-22T18:47:10.089Z,54.69
2023-06-22T18:49:50.317Z,55.45
2023-06-22T18:52:18.746Z,55.77
2023-06-22T18:54:49.940Z,56.58
2023-06-22T18:57:17.746Z,56.40
2023-06-22T18:59:46.623Z,56.84
2023-06-22T19:02:34.302Z,57.91
2023-06-22T19:05:17.033Z,56.84
2023-06-22T19:07:52.733Z,56.71
2023-06-22T19:10:30.089Z,57.13
2023-06-22T19:13:12.312Z,57.92
2023-06-22T19:15:41.853Z,58.04
2023-06-22T19:18:25.978Z,58.49
2023-06-22T19:20:54.600Z,57.87
2023-06-22T19:23:25.700Z,58.57
2023-06-22T19:25:58.113Z,58.52
2023-06-22T19:28:29.105Z,59.09
2023-06-22T19:30:58.145Z,58.80
2023-06-22T19:33:26.907Z,57.71
2023-06-22T19:35:58.044Z,57.63
2023-06-22T19:38:28.493Z,57.45
2023-06-22T19:40:55.476Z,58.17
2023-06-22T19:43:22.981Z,58.03
2023-06-22T19:45:49.715Z,58.56
2023-06-22T19:48:16.628Z,59.11
2023-06-22T19:50:45.959Z,58.98
2023-06-22T19:53:16.231Z,59.08
2023-06-22T19:55:44.513Z,59.68
2023-06-22T19:58:13.194Z,59.53
2023-06-22T20:00:40.681Z,59.52
2023-06-22T20:03:16.378Z,59.67
2023-06-22T20:05:44.841Z,59.93
2023-06-22T20:08:13.495Z,60.44
2023-06-22T20:10:40.455Z,59.57
2023-06-22T20:13:15.681Z,59.42
2023-06-22T20:15:49.461Z,59.26
2023-06-22T20:18:16.888Z,59.29
2023-06-22T20:20:48.052Z,59.91
2023-06-22T20:23:22.637Z,59.92
2023-06-22T20:25:52.994Z,59.77
2023-06-22T20:28:19.983Z,60.18
2023-06-22T20:31:17.345Z,60.14
2023-06-22T20:33:44.097Z,59.71
2023-06-22T20:36:11.726Z,59.93
2023-06-22T20:38:38.349Z,59.56
2023-06-22T20:41:08.130Z,59.70
2023-06-22T20:43:34.815Z,60.21
2023-06-22T20:46:01.501Z,60.83
2023-06-22T20:48:38.977Z,61.13
2023-06-22T20:51:07.259Z,61.39
2023-06-22T20:53:33.926Z,61.92
2023-06-22T20:56:00.506Z,61.52
2023-06-22T20:58:27.033Z,61.38
2023-06-22T21:00:55.979Z,60.95
2023-06-22T21:03:22.822Z,60.45
2023-06-22T21:05:49.482Z,61.46
2023-06-22T21:08:17.120Z,61.67
2023-06-22T21:10:43.881Z,62.63
2023-06-22T21:13:10.486Z,63.51
2023-06-22T21:15:37.054Z,62.60
2023-06-22T21:18:03.801Z,61.64
2023-06-22T21:20:30.735Z,61.71
2023-06-22T21:22:57.348Z,61.38
2023-06-22T21:25:24.004Z,62.99
2023-06-22T21:27:51.428Z,62.87
2023-06-22T21:30:18.043Z,63.13
2023-06-22T21:32:44.826Z,65.30
2023-06-22T21:35:11.992Z,67.94
2023-06-22T21:37:39.220Z,71.77
2023-06-22T21:40:07.761Z,72.85
2023-06-22T21:42:34.445Z,73.28
2023-06-22T21:45:01.042Z,77.52
2023-06-22T21:47:27.836Z,77.95
2023-06-22T21:49:54.510Z,80.40
2023-06-22T21:52:21.494Z,82.20
2023-06-22T21:54:48.128Z,84.97
2023-06-22T21:57:14.725Z,87.32
2023-06-22T21:59:41.357Z,88.96
2023-06-22T22:02:08.045Z,89.59
2023-06-22T22:04:35.852Z,85.32
2023-06-22T22:07:02.857Z,84.42
2023-06-22T22:09:29.425Z,81.79
2023-06-22T22:11:56.032Z,83.99
2023-06-22T22:14:22.617Z,84.23
2023-06-22T22:16:49.267Z,82.54
2023-06-22T22:19:16.381Z,82.99
2023-06-22T22:21:44.544Z,85.50
2023-06-22T22:24:11.280Z,86.15
2023-06-22T22:26:38.237Z,83.40
2023-06-22T22:29:05.673Z,83.61
2023-06-22T22:31:38.947Z,85.63
2023-06-22T22:34:07.184Z,86.23
2023-06-22T22:36:34.487Z,89.53
2023-06-22T22:39:01.693Z,89.34
2023-06-22T22:41:28.623Z,90.83
2023-06-22T22:43:56.658Z,93.58
2023-06-22T22:46:23.285Z,95.95
2023-06-22T22:48:49.941Z,97.78
2023-06-22T22:51:17.007Z,99.10
2023-06-22T22:53:43.857Z,100.00
2023-06-22T22:56:13.764Z,100.00
2023-06-22T22:58:40.326Z,100.00
2023-06-22T23:01:06.982Z,97.76
2023-06-22T23:03:34.441Z,96.89
2023-06-22T23:06:01.337Z,97.80
2023-06-22T23:08:27.920Z,100.00
2023-06-22T23:10:54.844Z,100.00
2023-06-22T23:13:21.491Z,100.00
2023-06-22T23:15:48.087Z,100.00
2023-06-22T23:18:14.789Z,100.00
2023-06-22T23:20:41.404Z,100.00
2023-06-22T23:23:11.104Z,100.00
2023-06-22T23:25:39.229Z,100.00
2023-06-22T23:28:06.853Z,100.00
2023-06-22T23:30:35.344Z,100.00
2023-06-22T23:33:02.101Z,100.00
2023-06-22T23:35:29.029Z,100.00
2023-06-22T23:37:55.841Z,100.00
2023-06-22T23:40:22.392Z,100.00
2023-06-22T23:42:49.926Z,100.00
2023-06-22T23:45:20.826Z,100.00
2023-06-22T23:47:51.449Z,100.00
2023-06-22T23:50:19.276Z,100.00
2023-06-22T23:52:50.079Z,100.00
2023-06-22T23:55:18.653Z,100.00
2023-06-22T23:57:46.087Z,100.00
